Rochester International Airport
KRST : now visible

Airfield :











YOU CAN JOIN US ON...

 
LOGIN :

Register | Disclaimer

   EN    FR    IT 

 









Legend :    VFR   Marginal VFR   IFR   Intensive IFR   Very Intensive IFR
Visi :
Ceiling :
>= 8 km
>= 3000ft
5 to 8 km
1000 to 3000 ft
1500m to 5 km
500 to 1000 ft
800 to 1500m
200 to 500 ft
< 800m
< 200 ft
Symbols :   Thunderstorms  Fog  Heavy snow  Heavy precipitations  Wind > 20 kt






- Airport Elevation : 1317 ft
- IATA code : RST


KRST - Rochester International

CURRENT METAR :
  • 090454Z AUTO 30017KT 10SM CLR 02/M04 A2986 RMK AO2 PK WND 31032/0357 SLP119 T00221044

EXPIRED METARs :
  • 090354Z AUTO 31019G32KT 10SM CLR 03/M05 A2986 RMK AO2 PK WND 32033/0334 SLP120 T00331050
  • 090254Z 30018G28KT 10SM CLR 04/M05 A2986 RMK AO2 PK WND 32033/0219 SLP119 T00441050 51018

TAF KRST
Valid from the 09 at 06:00 until the 10 at 06:00 UTC


090520Z 0906/1006 31013KT P6SM SKC
FM091500 31018G30KT P6SM BKN080
FM091800 31022G34KT P6SM -SHRA BKN035
FM100100 31014KT P6SM SCT050



MET'MAP, your aeronautical weather chart ! - Copyright ORBIFLY December 2007 - Disclaimer

ORBIFLY MET'MAP TEAM :

Programming & Development : Alexandra Zaïnal
Concept & original design : Baudouin d'Aumeries
Assistance for programming : Marc-Olivier Méhu
Technical & hardware support : Manuel Goepfert

Contact : metmap@orbifly.com




SOURCES & CREDITS :

   NOAA       Earth
Advisory